Time;durP1;ratioP1;P1;durP2;ratioP2;P2;SDS_P1;SDS_P2;PMS_P1;PMS_P2;Temp;Humidity;BMP_temperature;BMP_pressure;BME280_temperature;BME280_humidity;BME280_pressure;Samples;Min_cycle;Max_cycle;Signal;HPM_P1;HPM_P2
2023/02/21 02:14:48;;;;;;;0.50;0.50;;;;;;;7.07;55.65;97253.31;29396;213;63017;-61
2023/02/21 02:15:54;;;;;;;0.60;0.60;;;;;;;7.03;56.17;97257.59;29396;227;63004;-60
2023/02/21 02:16:50;;;;;;;0.50;0.50;;;;;;;7.02;56.08;97258.69;29396;247;63009;-63
2023/02/21 02:18:06;;;;;;;0.60;0.60;;;;;;;7.03;56.13;97269.22;29396;320;63004;-61
2023/02/21 02:19:06;;;;;;;0.50;0.50;;;;;;;7.00;56.26;97260.81;29395;198;63999;-61
2023/02/21 02:20:29;;;;;;;0.50;0.50;;;;;;;6.97;56.43;97266.72;29396;233;63005;-60
2023/02/21 02:21:44;;;;;;;0.60;0.60;;;;;;;6.96;56.31;97257.00;29418;221;63009;-60
2023/02/21 02:22:43;;;;;;;0.50;0.50;;;;;;;6.95;56.60;97263.47;29374;214;63004;-62
2023/02/21 02:23:50;;;;;;;0.50;0.50;;;;;;;6.91;56.56;97260.53;29396;251;63004;-60
2023/02/21 02:24:49;;;;;;;0.50;0.50;;;;;;;6.92;56.38;97261.34;29395;265;64013;-62
2023/02/21 02:25:48;;;;;;;0.55;0.55;;;;;;;6.90;56.75;97263.47;29396;205;63007;-69
2023/02/21 02:27:17;;;;;;;0.50;0.50;;;;;;;6.96;56.34;97257.81;29396;243;63009;-61
2023/02/21 02:28:13;;;;;;;0.60;0.60;;;;;;;6.95;55.96;97252.69;29396;395;63005;-62
2023/02/21 02:29:26;;;;;;;0.52;0.52;;;;;;;6.94;56.09;97248.38;29396;253;63009;-60
2023/02/21 02:30:51;;;;;;;0.50;0.50;;;;;;;7.00;55.66;97255.41;29417;216;64013;-61
2023/02/21 02:32:10;;;;;;;0.60;0.60;;;;;;;6.97;55.92;97248.66;29396;211;63004;-61
2023/02/21 02:33:29;;;;;;;0.60;0.60;;;;;;;6.99;55.93;97251.09;29396;215;63008;-61
2023/02/21 02:34:56;;;;;;;0.57;0.57;;;;;;;6.95;56.58;97250.00;29396;207;63005;-60
2023/02/21 02:35:33;;;;;;;0.50;0.50;;;;;;;6.96;56.31;97254.31;29395;221;64013;-60
2023/02/21 02:36:31;;;;;;;0.50;0.50;;;;;;;6.98;56.15;97247.59;29396;217;63009;-60
2023/02/21 02:37:22;;;;;;;0.52;0.52;;;;;;;7.00;55.90;97252.72;29396;210;63009;-61
2023/02/21 02:38:21;;;;;;;0.60;0.60;;;;;;;7.00;56.27;97241.94;29418;220;63004;-61
2023/02/21 02:39:16;;;;;;;0.50;0.50;;;;;;;6.99;55.84;97240.31;29396;236;63009;-60
2023/02/21 02:40:06;;;;;;;0.60;0.60;;;;;;;7.00;55.91;97247.31;29396;198;63004;-61
2023/02/21 02:41:10;;;;;;;0.55;0.55;;;;;;;6.99;56.46;97245.69;29439;236;64014;-68
2023/02/21 02:42:15;;;;;;;0.60;0.60;;;;;;;7.00;56.25;97233.84;29375;204;63011;-62
2023/02/21 02:43:19;;;;;;;0.60;0.60;;;;;;;7.05;55.51;97241.97;29396;207;63009;-59
2023/02/21 02:43:57;;;;;;;0.60;0.60;;;;;;;7.06;56.08;97238.19;29396;202;63011;-62
2023/02/21 02:44:38;;;;;;;0.50;0.50;;;;;;;7.10;55.58;97236.59;29396;200;63009;-62
2023/02/21 02:45:42;;;;;;;0.60;0.60;;;;;;;7.14;55.44;97240.41;29419;214;63004;-71
2023/02/21 02:46:27;;;;;;;0.55;0.55;;;;;;;7.12;55.92;97229.06;29396;199;64013;-61
2023/02/21 02:47:06;;;;;;;0.50;0.50;;;;;;;7.09;55.98;97237.69;29397;214;63004;-61
2023/02/21 02:47:41;;;;;;;0.50;0.50;;;;;;;7.09;55.71;97236.84;29397;229;63008;-62
2023/02/21 02:48:39;;;;;;;0.50;0.50;;;;;;;7.10;55.67;97241.19;29397;241;63010;-60
2023/02/21 02:49:22;;;;;;;0.57;0.57;;;;;;;7.09;55.67;97237.69;29397;213;63022;-61
2023/02/21 02:49:57;;;;;;;0.60;0.60;;;;;;;7.10;55.87;97233.91;29397;283;63000;-61
2023/02/21 02:50:30;;;;;;;0.50;0.50;;;;;;;7.08;56.11;97233.34;29397;197;63024;-61
2023/02/21 02:51:07;;;;;;;0.50;0.50;;;;;;;7.07;56.29;97231.72;29397;209;63005;-62
2023/02/21 02:51:42;;;;;;;0.55;0.55;;;;;;;7.06;56.08;97230.91;29396;234;64013;-70
2023/02/21 02:52:14;;;;;;;0.50;0.50;;;;;;;7.05;56.05;97233.87;29397;213;63004;-60
2023/02/21 02:53:00;;;;;;;0.50;0.50;;;;;;;7.02;56.08;97237.09;29397;236;63009;-60
2023/02/21 02:53:31;;;;;;;0.57;0.57;;;;;;;7.00;55.80;97231.94;29397;235;63009;-60
2023/02/21 02:54:03;;;;;;;0.50;0.50;;;;;;;7.02;55.84;97234.37;29397;203;63008;-61
2023/02/21 02:54:35;;;;;;;0.50;0.50;;;;;;;7.00;56.29;97231.94;29397;213;63004;-61
2023/02/21 02:55:39;;;;;;;0.50;0.50;;;;;;;7.02;55.83;97229.00;29397;269;63009;-61
2023/02/21 02:56:15;;;;;;;0.50;0.50;;;;;;;7.01;55.58;97227.37;29396;229;63005;-69
2023/02/21 02:56:50;;;;;;;0.50;0.50;;;;;;;7.01;55.81;97232.78;29396;224;64004;-59
2023/02/21 02:57:22;;;;;;;0.60;0.60;;;;;;;7.01;55.88;97227.37;29397;247;63005;-60
2023/02/21 02:57:54;;;;;;;0.60;0.60;;;;;;;7.01;55.94;97227.37;29395;213;64013;-60
2023/02/21 02:58:33;;;;;;;0.50;0.50;;;;;;;7.00;56.14;97226.56;29397;222;63005;-61
2023/02/21 02:59:20;;;;;;;0.50;0.50;;;;;;;7.02;55.76;97220.91;29396;198;63009;-70
2023/02/21 03:00:11;;;;;;;0.50;0.50;;;;;;;7.03;55.97;97227.91;29396;204;63004;-60
2023/02/21 03:00:50;;;;;;;0.52;0.52;;;;;;;7.04;56.00;97232.25;29418;218;63004;-60
2023/02/21 03:01:58;;;;;;;0.50;0.50;;;;;;;7.01;56.09;97235.47;29395;233;64009;-61
2023/02/21 03:02:56;;;;;;;0.60;0.60;;;;;;;7.00;56.19;97233.84;29396;229;63005;-61
2023/02/21 03:04:00;;;;;;;0.50;0.50;;;;;;;6.98;56.20;97235.97;29396;205;63009;-71
2023/02/21 03:05:02;;;;;;;0.50;0.50;;;;;;;6.97;55.98;97228.97;29395;287;64009;-61
2023/02/21 03:06:12;;;;;;;0.52;0.52;;;;;;;6.99;56.40;97234.91;29417;263;64030;-61
2023/02/21 03:07:02;;;;;;;0.50;0.50;;;;;;;6.99;55.76;97237.59;29395;278;64009;-71
2023/02/21 03:08:07;;;;;;;0.50;0.50;;;;;;;6.99;56.12;97240.31;29396;245;63009;-60
2023/02/21 03:09:00;;;;;;;0.50;0.50;;;;;;;6.99;56.39;97235.72;29397;211;63004;-61
2023/02/21 03:10:38;;;;;;;0.50;0.50;;;;;;;7.01;56.45;97238.97;29395;238;64013;-68
2023/02/21 03:11:20;;;;;;;0.50;0.50;;;;;;;7.01;56.16;97238.16;29396;222;63019;-69
2023/02/21 03:12:43;;;;;;;0.50;0.50;;;;;;;7.01;56.35;97228.19;29395;197;64013;-60
2023/02/21 03:13:41;;;;;;;0.60;0.60;;;;;;;7.05;55.91;97231.16;29396;207;63005;-60
2023/02/21 03:14:17;;;;;;;0.52;0.52;;;;;;;7.04;56.32;97234.94;29395;260;64013;-60
2023/02/21 03:15:24;;;;;;;0.50;0.50;;;;;;;7.05;55.97;97231.16;29396;259;63004;-61
2023/02/21 03:16:24;;;;;;;0.50;0.50;;;;;;;7.03;55.68;97230.62;29396;248;63009;-60
2023/02/21 03:17:11;;;;;;;0.50;0.50;;;;;;;7.02;55.98;97227.09;29396;264;63000;-60
2023/02/21 03:17:51;;;;;;;0.50;0.50;;;;;;;7.03;56.28;97230.62;29395;285;64014;-60
2023/02/21 03:19:01;;;;;;;0.50;0.50;;;;;;;7.04;56.35;97232.25;29395;232;64009;-60
2023/02/21 03:19:38;;;;;;;0.50;0.50;;;;;;;7.04;56.10;97229.53;29396;227;63009;-60
2023/02/21 03:20:12;;;;;;;0.50;0.50;;;;;;;7.04;55.90;97232.25;29395;253;64009;-61
2023/02/21 03:20:45;;;;;;;0.50;0.50;;;;;;;7.02;56.33;97229.81;29396;221;63009;-61
2023/02/21 03:21:22;;;;;;;0.50;0.50;;;;;;;7.02;56.36;97234.37;29396;217;63005;-60
2023/02/21 03:21:59;;;;;;;0.50;0.50;;;;;;;7.02;56.41;97235.19;29395;211;64013;-61
2023/02/21 03:22:31;;;;;;;0.50;0.50;;;;;;;7.02;56.47;97229.00;29396;210;63009;-60
2023/02/21 03:23:05;;;;;;;0.50;0.50;;;;;;;7.01;56.33;97230.06;29396;218;63009;-60
2023/02/21 03:23:38;;;;;;;0.60;0.60;;;;;;;7.00;56.48;97231.12;29396;218;63004;-61
2023/02/21 03:24:12;;;;;;;0.50;0.50;;;;;;;6.99;56.62;97235.72;29396;196;63008;-61
2023/02/21 03:24:47;;;;;;;0.50;0.50;;;;;;;6.97;56.52;97227.06;29396;293;63004;-61
2023/02/21 03:25:22;;;;;;;0.50;0.50;;;;;;;6.97;56.71;97234.34;29396;287;63014;-60
2023/02/21 03:25:56;;;;;;;0.50;0.50;;;;;;;6.97;56.56;97237.06;29396;299;63016;-61
2023/02/21 03:26:32;;;;;;;0.50;0.50;;;;;;;6.97;56.72;97227.06;29395;297;64014;-61
2023/02/21 03:27:07;;;;;;;0.50;0.50;;;;;;;6.98;56.67;97225.19;29395;255;64009;-61
2023/02/21 03:27:41;;;;;;;0.50;0.50;;;;;;;6.99;56.58;97224.13;29396;245;63009;-60
2023/02/21 03:28:13;;;;;;;0.50;0.50;;;;;;;6.98;56.73;97220.59;29396;277;63005;-61
2023/02/21 03:28:46;;;;;;;0.50;0.50;;;;;;;7.00;56.47;97225.75;29396;287;63009;-61
2023/02/21 03:29:20;;;;;;;0.50;0.50;;;;;;;7.00;56.36;97225.75;29396;207;63018;-61
2023/02/21 03:29:54;;;;;;;0.50;0.50;;;;;;;7.00;56.65;97231.12;29395;224;64013;-61
2023/02/21 03:30:26;;;;;;;0.50;0.50;;;;;;;7.00;56.47;97221.16;29396;277;63004;-60
2023/02/21 03:30:59;;;;;;;0.50;0.50;;;;;;;7.01;56.36;97225.50;29396;238;63009;-61
2023/02/21 03:31:36;;;;;;;0.60;0.60;;;;;;;7.02;56.73;97223.59;29396;236;63004;-61
2023/02/21 03:32:51;;;;;;;0.50;0.50;;;;;;;7.02;56.31;97229.00;29417;281;64009;-61
2023/02/21 03:33:23;;;;;;;0.50;0.50;;;;;;;7.02;56.48;97231.69;29396;254;63009;-61
2023/02/21 03:33:55;;;;;;;0.50;0.50;;;;;;;7.02;56.45;97229.00;29396;245;63005;-61
2023/02/21 03:34:27;;;;;;;0.60;0.60;;;;;;;7.02;56.71;97231.69;29396;222;63013;-61
2023/02/21 03:34:59;;;;;;;0.50;0.50;;;;;;;7.01;56.43;97227.37;29396;200;63005;-61
2023/02/21 03:35:30;;;;;;;0.50;0.50;;;;;;;7.01;56.60;97221.97;29395;213;64009;-60
2023/02/21 03:36:06;;;;;;;0.50;0.50;;;;;;;7.02;56.57;97220.91;29396;241;63005;-60
2023/02/21 03:36:38;;;;;;;0.50;0.50;;;;;;;7.01;56.40;97227.37;29396;231;63018;-69
2023/02/21 03:37:31;;;;;;;0.50;0.50;;;;;;;7.00;56.79;97220.34;29395;199;64009;-60
2023/02/21 03:38:03;;;;;;;0.50;0.50;;;;;;;7.00;56.37;97220.34;29396;251;63009;-61
2023/02/21 03:38:35;;;;;;;0.50;0.50;;;;;;;7.00;56.80;97231.12;29396;202;63004;-61
2023/02/21 03:39:07;;;;;;;0.50;0.50;;;;;;;7.00;56.38;97226.56;29396;262;63009;-60
2023/02/21 03:39:39;;;;;;;0.60;0.60;;;;;;;6.99;56.91;97230.31;29396;273;63004;-61
2023/02/21 03:40:32;;;;;;;0.50;0.50;;;;;;;7.00;56.81;97225.75;29395;232;64014;-61
2023/02/21 03:41:05;;;;;;;0.50;0.50;;;;;;;6.99;56.86;97219.53;29396;226;63011;-60
2023/02/21 03:41:36;;;;;;;0.60;0.60;;;;;;;7.00;56.76;97220.34;29395;231;64009;-61
2023/02/21 03:42:07;;;;;;;0.50;0.50;;;;;;;7.01;56.90;97221.97;29396;229;63005;-60
2023/02/21 03:42:39;;;;;;;0.50;0.50;;;;;;;7.02;56.29;97223.59;29396;202;63009;-61
2023/02/21 03:43:10;;;;;;;0.50;0.50;;;;;;;7.03;56.49;97219.81;29395;257;64009;-60
2023/02/21 03:43:41;;;;;;;0.50;0.50;;;;;;;7.04;55.91;97224.16;29396;249;63009;-60
2023/02/21 03:44:14;;;;;;;0.50;0.50;;;;;;;7.03;56.38;97219.81;29396;254;63004;-60
2023/02/21 03:44:45;;;;;;;0.50;0.50;;;;;;;7.03;56.44;97223.34;29396;230;63009;-60
2023/02/21 03:45:17;;;;;;;0.50;0.50;;;;;;;7.03;56.26;97219.81;29396;210;63014;-61
2023/02/21 03:45:48;;;;;;;0.50;0.50;;;;;;;7.03;56.53;97228.72;29395;268;64013;-69
2023/02/21 03:46:19;;;;;;;0.50;0.50;;;;;;;7.03;56.55;97219.81;29396;211;63004;-62
2023/02/21 03:46:51;;;;;;;0.50;0.50;;;;;;;7.07;56.12;97219.03;29395;216;64013;-59
2023/02/21 03:47:22;;;;;;;0.50;0.50;;;;;;;7.09;55.95;97218.78;29395;208;64004;-61
2023/02/21 03:47:53;;;;;;;0.50;0.50;;;;;;;7.10;56.28;97225.00;29397;246;63009;-60
2023/02/21 03:48:25;;;;;;;0.50;0.50;;;;;;;7.07;56.04;97224.44;29397;202;63008;-60
2023/02/21 03:48:56;;;;;;;0.50;0.50;;;;;;;7.08;56.56;97222.56;29395;238;64013;-61
2023/02/21 03:49:27;;;;;;;0.50;0.50;;;;;;;7.07;56.15;97221.75;29397;238;63005;-60
2023/02/21 03:49:59;;;;;;;0.50;0.50;;;;;;;7.06;56.05;97225.50;29397;290;63009;-61
2023/02/21 03:50:30;;;;;;;0.60;0.60;;;;;;;7.07;56.66;97220.94;29397;277;63005;-69
2023/02/21 03:51:01;;;;;;;0.50;0.50;;;;;;;7.05;56.50;97223.06;29395;252;63009;-72
2023/02/21 03:51:33;;;;;;;0.50;0.50;;;;;;;7.05;56.51;97220.38;29395;306;63004;-60
2023/02/21 03:52:04;;;;;;;0.50;0.50;;;;;;;7.02;56.07;97219.00;29396;280;63016;-61
2023/02/21 03:52:36;;;;;;;0.50;0.50;;;;;;;7.03;56.37;97219.81;29395;213;63004;-60
2023/02/21 03:53:09;;;;;;;0.50;0.50;;;;;;;7.02;56.86;97218.19;29394;209;64013;-60
2023/02/21 03:53:41;;;;;;;0.60;0.60;;;;;;;6.99;56.77;97221.41;29395;302;63004;-60
2023/02/21 03:54:12;;;;;;;0.60;0.60;;;;;;;6.97;56.80;97220.88;29396;228;63008;-60
2023/02/21 03:54:43;;;;;;;0.60;0.60;;;;;;;6.94;57.38;97216.00;29395;236;63005;-61
2023/02/21 03:55:15;;;;;;;0.50;0.50;;;;;;;6.91;57.02;97225.44;29395;275;63025;-61
2023/02/21 03:55:47;;;;;;;0.50;0.50;;;;;;;6.92;57.47;97223.56;29395;236;63005;-61
2023/02/21 03:56:18;;;;;;;0.50;0.50;;;;;;;6.92;56.96;97223.56;29395;285;63009;-71
2023/02/21 03:56:49;;;;;;;0.57;0.57;;;;;;;6.93;56.52;97225.19;29393;203;64009;-61
2023/02/21 03:57:21;;;;;;;0.50;0.50;;;;;;;6.94;56.95;97218.69;29395;312;63009;-60
2023/02/21 03:57:52;;;;;;;0.50;0.50;;;;;;;6.93;56.60;97217.88;29393;212;64009;-60
2023/02/21 03:58:23;;;;;;;0.60;0.60;;;;;;;6.91;56.95;97216.53;29395;212;63016;-61
2023/02/21 03:58:55;;;;;;;0.50;0.50;;;;;;;6.91;57.01;97220.06;29393;248;64009;-61
2023/02/21 03:59:27;;;;;;;0.55;0.55;;;;;;;6.91;57.11;97230.84;29395;259;63009;-60
2023/02/21 03:59:59;;;;;;;0.50;0.50;;;;;;;6.89;57.10;97224.91;29395;336;63004;-61
2023/02/21 04:00:30;;;;;;;0.60;0.60;;;;;;;6.89;57.08;97229.47;29395;196;63009;-61
2023/02/21 04:01:02;;;;;;;0.50;0.50;;;;;;;6.87;56.99;97237.03;29395;241;63004;-61
2023/02/21 04:01:33;;;;;;;0.60;0.60;;;;;;;6.85;56.90;97233.75;29395;219;63008;-61
2023/02/21 04:02:04;;;;;;;0.55;0.55;;;;;;;6.81;57.81;97235.34;29395;198;63005;-60
2023/02/21 04:02:36;;;;;;;0.50;0.50;;;;;;;6.79;57.30;97234.81;29395;205;63009;-60
2023/02/21 04:03:07;;;;;;;0.60;0.60;;;;;;;6.76;57.46;97235.31;29395;225;63005;-61
2023/02/21 04:03:38;;;;;;;0.50;0.50;;;;;;;6.76;57.47;97232.63;29395;207;63009;-61
2023/02/21 04:04:09;;;;;;;0.50;0.50;;;;;;;6.78;57.25;97238.56;29393;205;64009;-61
2023/02/21 04:04:42;;;;;;;0.50;0.50;;;;;;;6.76;57.27;97232.63;29395;218;63009;-60
2023/02/21 04:05:28;;;;;;;0.50;0.50;;;;;;;6.73;57.20;97226.69;29395;257;63005;-67
2023/02/21 04:06:07;;;;;;;0.50;0.50;;;;;;;6.69;57.63;97241.75;29395;221;63009;-59
2023/02/21 04:06:38;;;;;;;0.50;0.50;;;;;;;6.67;57.73;97233.09;29395;250;63004;-72
2023/02/21 04:07:12;;;;;;;0.60;0.60;;;;;;;6.65;57.85;97235.25;29395;229;63009;-67
2023/02/21 04:07:43;;;;;;;0.50;0.50;;;;;;;6.63;58.47;97232.00;29395;202;63004;-61
2023/02/21 04:08:15;;;;;;;0.50;0.50;;;;;;;6.62;58.18;97238.47;29395;318;63009;-61
2023/02/21 04:08:47;;;;;;;0.50;0.50;;;;;;;6.58;58.27;97226.59;29395;197;63004;-72
2023/02/21 04:09:19;;;;;;;0.50;0.50;;;;;;;6.59;58.26;97230.06;29393;207;64013;-61
2023/02/21 04:09:50;;;;;;;0.50;0.50;;;;;;;6.58;58.09;97229.28;29395;247;63005;-61
2023/02/21 04:10:21;;;;;;;0.50;0.50;;;;;;;6.57;58.02;97238.44;29395;236;63009;-60
2023/02/21 04:10:53;;;;;;;0.50;0.50;;;;;;;6.59;58.45;97233.56;29394;210;63005;-62
2023/02/21 04:11:24;;;;;;;0.50;0.50;;;;;;;6.58;57.88;97234.69;29395;203;63009;-60
2023/02/21 04:11:56;;;;;;;0.50;0.50;;;;;;;6.55;58.69;97235.19;29395;238;63005;-61
2023/02/21 04:12:27;;;;;;;0.50;0.50;;;;;;;6.53;58.35;97233.81;29395;234;63009;-60
2023/02/21 04:12:58;;;;;;;0.50;0.50;;;;;;;6.50;58.35;97232.47;29395;222;63005;-59
2023/02/21 04:13:29;;;;;;;0.60;0.60;;;;;;;6.48;58.49;97223.00;29395;225;63009;-60
2023/02/21 04:14:01;;;;;;;0.50;0.50;;;;;;;6.42;58.71;97232.13;29395;237;63008;-61
2023/02/21 04:14:32;;;;;;;0.50;0.50;;;;;;;6.42;59.16;97230.22;29393;197;64013;-71
2023/02/21 04:15:04;;;;;;;0.50;0.50;;;;;;;6.36;58.92;97239.34;29395;218;63004;-61
2023/02/21 04:15:35;;;;;;;0.50;0.50;;;;;;;6.37;58.89;97238.28;29395;218;63009;-60
2023/02/21 04:16:08;;;;;;;0.52;0.52;;;;;;;6.33;59.18;97237.97;29395;234;63004;-72
2023/02/21 04:16:40;;;;;;;0.50;0.50;;;;;;;6.28;59.13;97235.22;29395;205;63008;-70
2023/02/21 04:17:12;;;;;;;0.50;0.50;;;;;;;6.27;59.30;97238.19;29395;202;63005;-61
2023/02/21 04:17:43;;;;;;;0.50;0.50;;;;;;;6.26;59.27;97240.06;29395;204;63009;-60
2023/02/21 04:18:15;;;;;;;0.50;0.50;;;;;;;6.25;59.36;97240.31;29395;231;63005;-60
2023/02/21 04:18:52;;;;;;;0.50;0.50;;;;;;;6.24;59.20;97236.81;29395;203;63009;-69
2023/02/21 04:19:23;;;;;;;0.52;0.52;;;;;;;6.21;59.73;97234.66;29395;220;63005;-66
2023/02/21 04:19:54;;;;;;;0.50;0.50;;;;;;;6.20;59.84;97241.09;29393;238;64013;-60
2023/02/21 04:20:26;;;;;;;0.50;0.50;;;;;;;6.20;59.82;97243.00;29395;218;63005;-60
2023/02/21 04:20:57;;;;;;;0.50;0.50;;;;;;;6.19;59.71;97241.37;29395;212;63009;-72
2023/02/21 04:21:28;;;;;;;0.50;0.50;;;;;;;6.17;59.85;97238.94;29395;218;63004;-60
2023/02/21 04:22:00;;;;;;;0.50;0.50;;;;;;;6.17;59.43;97233.53;29395;228;63009;-67
2023/02/21 04:22:31;;;;;;;0.60;0.60;;;;;;;6.18;59.91;97234.34;29395;215;63004;-60
2023/02/21 04:23:04;;;;;;;0.50;0.50;;;;;;;6.17;59.94;97238.12;29395;211;63013;-71
2023/02/21 04:23:36;;;;;;;0.50;0.50;;;;;;;6.17;59.96;97238.12;29395;203;63004;-71
2023/02/21 04:24:07;;;;;;;0.60;0.60;;;;;;;6.17;59.69;97232.72;29395;203;63008;-61
2023/02/21 04:24:39;;;;;;;0.50;0.50;;;;;;;6.17;60.13;97240.81;29395;229;63005;-61
2023/02/21 04:25:11;;;;;;;0.60;0.60;;;;;;;6.16;60.66;97236.47;29394;211;64014;-60
2023/02/21 04:25:42;;;;;;;0.50;0.50;;;;;;;6.15;60.30;97235.69;29394;225;64009;-60
2023/02/21 04:26:14;;;;;;;0.60;0.60;;;;;;;6.15;60.43;97245.62;29395;297;63009;-70
2023/02/21 04:26:45;;;;;;;0.50;0.50;;;;;;;6.14;60.46;97238.62;29394;271;64009;-69
2023/02/21 04:27:16;;;;;;;0.50;0.50;;;;;;;6.14;60.30;97241.31;29395;232;63009;-71
2023/02/21 04:27:47;;;;;;;0.50;0.50;;;;;;;6.15;60.42;97242.94;29395;198;63005;-60
2023/02/21 04:28:19;;;;;;;0.50;0.50;;;;;;;6.15;59.76;97234.84;29395;225;63009;-60
2023/02/21 04:28:51;;;;;;;0.50;0.50;;;;;;;6.17;59.98;97232.72;29394;203;64009;-60
2023/02/21 04:29:22;;;;;;;0.50;0.50;;;;;;;6.18;59.91;97234.34;29395;213;63009;-61
2023/02/21 04:29:53;;;;;;;0.60;0.60;;;;;;;6.18;59.95;97234.34;29395;199;63004;-61
2023/02/21 04:30:25;;;;;;;0.50;0.50;;;;;;;6.20;59.79;97234.91;29394;196;64013;-61
2023/02/21 04:30:57;;;;;;;0.60;0.60;;;;;;;6.19;59.71;97236.78;29395;217;63017;-61
2023/02/21 04:31:28;;;;;;;0.50;0.50;;;;;;;6.19;59.67;97233.28;29395;255;63008;-61
2023/02/21 04:32:01;;;;;;;0.50;0.50;;;;;;;6.20;59.84;97232.22;29394;218;64008;-70
2023/02/21 04:32:33;;;;;;;0.50;0.50;;;;;;;6.18;60.08;97239.75;29395;286;63017;-60
2023/02/21 04:33:04;;;;;;;0.50;0.50;;;;;;;6.15;60.48;97243.75;29395;249;63005;-61
2023/02/21 04:33:36;;;;;;;0.50;0.50;;;;;;;6.14;60.01;97239.44;29395;206;63009;-60
2023/02/21 04:34:11;;;;;;;0.50;0.50;;;;;;;6.14;60.69;97244.00;29395;214;63005;-70
2023/02/21 04:34:42;;;;;;;0.57;0.57;;;;;;;6.13;60.09;97245.06;29395;218;63009;-60
2023/02/21 04:35:14;;;;;;;0.50;0.50;;;;;;;6.12;60.28;97238.06;29395;262;63005;-61
2023/02/21 04:35:45;;;;;;;0.50;0.50;;;;;;;6.11;60.25;97233.75;29395;266;63009;-60
2023/02/21 04:36:16;;;;;;;0.50;0.50;;;;;;;6.11;60.15;97241.81;29394;222;64009;-61
2023/02/21 04:36:48;;;;;;;0.50;0.50;;;;;;;6.12;60.11;97251.53;29395;287;63009;-61
2023/02/21 04:37:20;;;;;;;0.60;0.60;;;;;;;6.12;60.09;97246.16;29395;209;63000;-60
2023/02/21 04:37:51;;;;;;;0.50;0.50;;;;;;;6.12;59.95;97249.66;29395;224;63009;-60
2023/02/21 04:38:22;;;;;;;0.50;0.50;;;;;;;6.09;60.25;97243.97;29395;217;63004;-60
2023/02/21 04:38:54;;;;;;;0.50;0.50;;;;;;;6.06;60.45;97242.59;29395;206;63008;-67
2023/02/21 04:39:25;;;;;;;0.50;0.50;;;;;;;6.03;60.49;97243.09;29394;213;64008;-60
2023/02/21 04:39:57;;;;;;;0.50;0.50;;;;;;;6.01;60.53;97246.03;29395;265;63009;-61
2023/02/21 04:40:29;;;;;;;0.50;0.50;;;;;;;6.00;60.62;97249.00;29395;240;63005;-60
2023/02/21 04:41:03;;;;;;;0.60;0.60;;;;;;;6.01;60.98;97256.00;29395;239;63009;-60
2023/02/21 04:41:35;;;;;;;0.50;0.50;;;;;;;5.99;61.06;97253.56;29394;242;64009;-60
2023/02/21 04:42:06;;;;;;;0.50;0.50;;;;;;;5.98;60.99;97257.31;29395;274;63009;-61
2023/02/21 04:42:38;;;;;;;0.52;0.52;;;;;;;5.98;60.90;97257.31;29394;206;64009;-60
2023/02/21 04:43:09;;;;;;;0.50;0.50;;;;;;;5.95;60.50;97252.44;29395;232;63009;-61
2023/02/21 04:43:42;;;;;;;0.50;0.50;;;;;;;5.90;60.95;97252.38;29395;265;63005;-60
2023/02/21 04:44:13;;;;;;;0.50;0.50;;;;;;;5.87;60.89;97250.19;29395;260;63009;-61
2023/02/21 04:44:46;;;;;;;0.50;0.50;;;;;;;5.87;60.98;97254.78;29395;235;63004;-60
2023/02/21 04:45:18;;;;;;;0.50;0.50;;;;;;;5.87;60.80;97249.37;29395;202;63009;-61
2023/02/21 04:45:49;;;;;;;0.50;0.50;;;;;;;5.87;61.07;97250.19;29395;227;63004;-71
2023/02/21 04:46:21;;;;;;;0.50;0.50;;;;;;;5.88;60.67;97257.22;29395;284;63009;-61
2023/02/21 04:46:52;;;;;;;0.50;0.50;;;;;;;5.87;61.25;97254.78;29395;219;63004;-67
2023/02/21 04:47:23;;;;;;;0.50;0.50;;;;;;;5.85;61.13;97249.63;29395;259;63005;-60
2023/02/21 04:47:54;;;;;;;0.50;0.50;;;;;;;5.85;60.80;97256.91;29394;219;64009;-67
2023/02/21 04:48:26;;;;;;;0.50;0.50;;;;;;;5.80;60.85;97257.66;29395;231;63009;-60
2023/02/21 04:48:57;;;;;;;0.60;0.60;;;;;;;5.78;61.55;97257.09;29395;233;63005;-69
2023/02/21 04:49:28;;;;;;;0.60;0.60;;;;;;;5.76;61.54;97261.91;29395;239;63027;-62
2023/02/21 04:50:00;;;;;;;0.60;0.60;;;;;;;5.71;62.22;97257.28;29395;236;63010;-61
2023/02/21 04:50:31;;;;;;;0.50;0.50;;;;;;;5.70;61.64;97265.63;29395;216;63009;-61
2023/02/21 04:51:04;;;;;;;0.60;0.60;;;;;;;5.69;62.92;97259.41;29395;216;63004;-61
2023/02/21 04:51:35;;;;;;;0.60;0.60;;;;;;;5.67;62.42;97260.72;29395;302;63009;-59
2023/02/21 04:52:06;;;;;;;0.50;0.50;;;;;;;5.66;62.26;97256.41;29395;394;63004;-68
2023/02/21 04:52:39;;;;;;;0.50;0.50;;;;;;;5.65;62.36;97268.25;29394;210;64013;-60
2023/02/21 04:53:11;;;;;;;0.50;0.50;;;;;;;5.59;62.32;97258.47;29395;196;63004;-61
2023/02/21 04:53:46;;;;;;;0.55;0.55;;;;;;;5.58;62.10;97256.84;29395;206;63018;-61
2023/02/21 04:54:17;;;;;;;0.52;0.52;;;;;;;5.57;62.38;97260.59;29395;198;63004;-61
2023/02/21 04:54:50;;;;;;;0.60;0.60;;;;;;;5.56;62.16;97258.97;29395;364;63009;-60
2023/02/21 04:55:21;;;;;;;0.60;0.60;;;;;;;5.54;62.94;97261.97;29394;205;64009;-61
2023/02/21 04:55:54;;;;;;;0.50;0.50;;;;;;;5.53;63.56;97262.22;29395;220;63009;-68
2023/02/21 04:56:26;;;;;;;0.50;0.50;;;;;;;5.48;63.59;97267.53;29395;230;63004;-61
2023/02/21 04:56:58;;;;;;;0.57;0.57;;;;;;;5.40;62.90;97263.38;29395;267;63009;-60
2023/02/21 04:57:29;;;;;;;0.60;0.60;;;;;;;5.35;63.65;97260.62;29395;207;63005;-61
2023/02/21 04:58:00;;;;;;;0.50;0.50;;;;;;;5.32;63.01;97259.25;29395;284;63009;-69
2023/02/21 04:58:33;;;;;;;0.60;0.60;;;;;;;5.34;63.65;97257.13;29394;227;64009;-61
2023/02/21 04:59:07;;;;;;;0.50;0.50;;;;;;;5.36;63.05;97260.38;29395;234;63009;-60
2023/02/21 04:59:38;;;;;;;0.70;0.70;;;;;;;5.36;63.25;97251.50;29395;215;63004;-67
2023/02/21 05:00:11;;;;;;;0.50;0.50;;;;;;;5.35;63.06;97247.19;29395;253;63009;-61
2023/02/21 05:00:43;;;;;;;0.60;0.60;;;;;;;5.35;63.49;97258.75;29395;206;63004;-61
2023/02/21 05:01:16;;;;;;;0.60;0.60;;;;;;;5.32;64.09;97253.88;29395;206;63008;-60
2023/02/21 05:01:47;;;;;;;0.50;0.50;;;;;;;5.30;64.01;97256.00;29395;207;63005;-72
2023/02/21 05:02:19;;;;;;;0.60;0.60;;;;;;;5.26;63.41;97251.34;29394;219;64014;-61
2023/02/21 05:02:51;;;;;;;0.55;0.55;;;;;;;5.23;63.29;97255.34;29395;222;63005;-61
2023/02/21 05:03:23;;;;;;;0.50;0.50;;;;;;;5.22;63.56;97253.72;29395;246;63009;-60
2023/02/21 05:03:54;;;;;;;0.50;0.50;;;;;;;5.21;63.58;97252.09;29395;211;63005;-61
2023/02/21 05:04:26;;;;;;;0.60;0.60;;;;;;;5.19;63.36;97254.25;29395;218;63009;-61
2023/02/21 05:04:57;;;;;;;0.50;0.50;;;;;;;5.18;63.04;97249.94;29395;271;63005;-68
2023/02/21 05:05:29;;;;;;;0.50;0.50;;;;;;;5.18;63.02;97252.62;29395;206;63019;-69
2023/02/21 05:06:00;;;;;;;0.95;0.95;;;;;;;5.18;62.86;97258.00;29395;375;63004;-61
2023/02/21 05:06:32;;;;;;;0.50;0.50;;;;;;;5.17;62.90;97251.00;29395;196;63009;-60
2023/02/21 05:07:04;;;;;;;0.50;0.50;;;;;;;5.18;62.94;97252.62;29395;202;63004;-68
2023/02/21 05:07:37;;;;;;;0.60;0.60;;;;;;;5.20;63.18;97253.16;29394;202;64013;-61
2023/02/21 05:08:08;;;;;;;0.50;0.50;;;;;;;5.22;63.24;97251.03;29395;243;63004;-71
2023/02/21 05:08:39;;;;;;;0.50;0.50;;;;;;;5.24;62.96;97246.22;29395;212;63008;-61
2023/02/21 05:09:11;;;;;;;0.60;0.60;;;;;;;5.25;62.88;97250.53;29394;230;64009;-71
2023/02/21 05:09:42;;;;;;;0.60;0.60;;;;;;;5.25;63.06;97242.47;29394;229;64014;-60
2023/02/21 05:10:16;;;;;;;0.60;0.60;;;;;;;5.27;63.21;97248.41;29394;267;64009;-61
2023/02/21 05:10:48;;;;;;;0.50;0.50;;;;;;;5.26;62.74;97244.09;29395;255;63009;-60
2023/02/21 05:11:21;;;;;;;0.60;0.60;;;;;;;5.26;63.26;97246.78;29395;240;63005;-69
2023/02/21 05:11:52;;;;;;;0.60;0.60;;;;;;;5.28;63.19;97243.84;29394;257;64009;-59
2023/02/21 05:12:25;;;;;;;0.50;0.50;;;;;;;5.28;63.28;97241.97;29395;209;63005;-71
2023/02/21 05:12:56;;;;;;;0.50;0.50;;;;;;;5.28;63.15;97244.66;29395;224;63009;-61
2023/02/21 05:13:31;;;;;;;0.50;0.50;;;;;;;5.27;63.10;97245.72;29394;211;64009;-60
2023/02/21 05:14:07;;;;;;;0.50;0.50;;;;;;;5.27;63.16;97245.72;29395;208;63009;-68
2023/02/21 05:14:38;;;;;;;0.60;0.60;;;;;;;5.20;62.94;97242.41;29394;361;64009;-60
2023/02/21 05:15:12;;;;;;;0.50;0.50;;;;;;;5.12;63.74;97242.87;29395;206;63009;-61
2023/02/21 05:15:43;;;;;;;0.50;0.50;;;;;;;5.08;64.00;97251.69;29394;280;64004;-60
2023/02/21 05:16:15;;;;;;;0.60;0.60;;;;;;;5.07;63.61;97239.28;29395;214;63008;-68
2023/02/21 05:16:47;;;;;;;0.52;0.52;;;;;;;5.09;63.69;97246.06;29395;219;63010;-61
2023/02/21 05:17:18;;;;;;;0.60;0.60;;;;;;;5.11;63.60;97246.62;29394;206;64014;-61
2023/02/21 05:17:49;;;;;;;0.50;0.50;;;;;;;5.14;64.00;97251.50;29395;212;63005;-61